Time;durP1;ratioP1;P1;durP2;ratioP2;P2;SDS_P1;SDS_P2;PMS_P1;PMS_P2;Temp;Humidity;BMP_temperature;BMP_pressure;BME280_temperature;BME280_humidity;BME280_pressure;Samples;Min_cycle;Max_cycle;Signal;HPM_P1;HPM_P2
2022/07/24 00:00:43;;;;;;;1.90;1.70;;;;;;;;;;4975808;28;20062;-72
2022/07/24 00:03:09;;;;;;;3.38;1.83;;;;;;;;;;4975376;28;20043;-74
2022/07/24 00:05:35;;;;;;;5.00;1.98;;;;;;;;;;4975721;28;20031;-73
2022/07/24 00:08:02;;;;;;;2.10;1.52;;;;;;;;;;4975437;28;20077;-72
2022/07/24 00:10:28;;;;;;;2.00;1.52;;;;;;;;;;4975657;28;20026;-72
2022/07/24 00:12:54;;;;;;;1.85;1.55;;;;;;;;;;4975345;28;20030;-73
2022/07/24 00:15:20;;;;;;;2.03;1.77;;;;;;;;;;4957880;28;20440;-73
2022/07/24 00:17:46;;;;;;;2.72;1.50;;;;;;;;;;4974948;28;20023;-74
2022/07/24 00:20:12;;;;;;;2.80;1.40;;;;;;;;;;4975201;28;20082;-73
2022/07/24 00:22:38;;;;;;;3.70;1.70;;;;;;;;;;4975174;28;20500;-72
2022/07/24 00:25:05;;;;;;;2.65;1.50;;;;;;;;;;4975105;28;20375;-72
2022/07/24 00:27:31;;;;;;;2.97;1.80;;;;;;;;;;4975100;28;20027;-72
2022/07/24 00:29:57;;;;;;;1.92;1.55;;;;;;;;;;4975337;28;20034;-72
2022/07/24 00:32:23;;;;;;;1.83;1.58;;;;;;;;;;4975264;28;20100;-72
2022/07/24 00:34:49;;;;;;;1.80;1.40;;;;;;;;;;4974934;28;20027;-73
2022/07/24 00:37:15;;;;;;;4.03;1.80;;;;;;;;;;4974835;28;20019;-74
2022/07/24 00:39:40;;;;;;;2.33;1.50;;;;;;;;;;4975167;28;20400;-72
2022/07/24 00:42:07;;;;;;;3.67;1.70;;;;;;;;;;4974876;28;20023;-72
2022/07/24 00:44:33;;;;;;;2.60;1.63;;;;;;;;;;4975359;28;20031;-71
2022/07/24 00:46:59;;;;;;;2.10;1.88;;;;;;;;;;4974766;28;20022;-72
2022/07/24 00:49:25;;;;;;;1.58;1.48;;;;;;;;;;4974716;28;20022;-73
2022/07/24 00:51:52;;;;;;;1.55;1.40;;;;;;;;;;4974990;28;20382;-71
2022/07/24 00:54:19;;;;;;;1.80;1.60;;;;;;;;;;4975228;28;20042;-71
2022/07/24 00:56:45;;;;;;;1.77;1.45;;;;;;;;;;4974840;28;20023;-71
2022/07/24 00:59:12;;;;;;;1.48;1.33;;;;;;;;;;4957260;28;20118;-72
2022/07/24 01:01:40;;;;;;;1.30;1.20;;;;;;;;;;4957226;28;20042;-71
2022/07/24 01:04:06;;;;;;;2.28;1.73;;;;;;;;;;4974319;28;20047;-73
2022/07/24 01:06:32;;;;;;;2.13;1.40;;;;;;;;;;4974717;28;20393;-72
2022/07/24 01:08:58;;;;;;;2.25;1.50;;;;;;;;;;4974483;28;20500;-73
2022/07/24 01:11:25;;;;;;;1.77;1.50;;;;;;;;;;4974442;28;20057;-74
2022/07/24 01:13:51;;;;;;;2.35;1.70;;;;;;;;;;4974411;28;20034;-73
2022/07/24 01:16:17;;;;;;;5.07;1.83;;;;;;;;;;4974327;28;20023;-71
2022/07/24 01:18:43;;;;;;;1.50;1.27;;;;;;;;;;4974647;28;20098;-74
2022/07/24 01:21:10;;;;;;;3.28;1.52;;;;;;;;;;4974578;28;20473;-71
2022/07/24 01:23:36;;;;;;;1.92;1.40;;;;;;;;;;4974320;28;20026;-74
2022/07/24 01:26:02;;;;;;;2.10;1.50;;;;;;;;;;4974309;28;20027;-73
2022/07/24 01:28:28;;;;;;;1.88;1.35;;;;;;;;;;4975213;28;20034;-75
2022/07/24 01:30:54;;;;;;;2.97;1.40;;;;;;;;;;4978879;28;20030;-73
2022/07/24 01:33:20;;;;;;;1.77;1.30;;;;;;;;;;4978784;28;20110;-72
2022/07/24 01:35:47;;;;;;;2.65;1.70;;;;;;;;;;4960829;28;20031;-72
2022/07/24 01:38:13;;;;;;;3.05;1.80;;;;;;;;;;4978182;28;20027;-74
2022/07/24 01:40:39;;;;;;;2.65;1.70;;;;;;;;;;4960786;28;20029;-72
2022/07/24 01:43:05;;;;;;;3.67;1.60;;;;;;;;;;4978080;28;20033;-72
2022/07/24 01:45:31;;;;;;;1.67;1.58;;;;;;;;;;4960609;28;20022;-73
2022/07/24 01:47:57;;;;;;;2.20;1.70;;;;;;;;;;4977957;28;20397;-72
2022/07/24 01:50:23;;;;;;;2.53;1.60;;;;;;;;;;4977978;28;20026;-71
2022/07/24 01:52:49;;;;;;;2.90;1.77;;;;;;;;;;4977977;28;20023;-72
2022/07/24 01:55:16;;;;;;;2.63;1.88;;;;;;;;;;4978424;28;20031;-72
2022/07/24 01:57:42;;;;;;;2.40;1.60;;;;;;;;;;4977803;28;20102;-72
2022/07/24 02:00:12;;;;;;;2.65;1.58;;;;;;;;;;4977744;28;20043;-71
2022/07/24 02:02:38;;;;;;;1.75;1.63;;;;;;;;;;4960206;28;20033;-72
2022/07/24 02:05:04;;;;;;;2.33;1.70;;;;;;;;;;4960149;28;20033;-72
2022/07/24 02:07:32;;;;;;;1.75;1.60;;;;;;;;;;4977870;28;20050;-71
2022/07/24 02:10:00;;;;;;;2.05;1.48;;;;;;;;;;4977934;28;20113;-72
2022/07/24 02:12:26;;;;;;;3.20;1.58;;;;;;;;;;4977571;28;20073;-72
2022/07/24 02:14:52;;;;;;;4.13;1.80;;;;;;;;;;4977525;28;20033;-74
2022/07/24 02:17:18;;;;;;;3.47;1.83;;;;;;;;;;4977648;28;20438;-73
2022/07/24 02:19:44;;;;;;;5.15;1.63;;;;;;;;;;4977456;28;20027;-72
2022/07/24 02:22:10;;;;;;;4.55;1.80;;;;;;;;;;4977670;28;20094;-72
2022/07/24 02:24:36;;;;;;;2.08;1.77;;;;;;;;;;4977352;28;20022;-71
2022/07/24 02:27:02;;;;;;;2.25;1.67;;;;;;;;;;4977564;28;20031;-72
2022/07/24 02:29:28;;;;;;;2.35;1.45;;;;;;;;;;4977540;28;20034;-72
2022/07/24 02:31:54;;;;;;;3.35;1.80;;;;;;;;;;4977482;28;20031;-73
2022/07/24 02:34:20;;;;;;;2.13;1.60;;;;;;;;;;4977163;28;20031;-73
2022/07/24 02:36:46;;;;;;;2.47;1.77;;;;;;;;;;4977320;28;20038;-73
2022/07/24 02:39:12;;;;;;;1.90;1.70;;;;;;;;;;4976980;28;20042;-73
2022/07/24 02:41:38;;;;;;;2.50;1.50;;;;;;;;;;4977085;28;20027;-72
2022/07/24 02:44:04;;;;;;;1.77;1.63;;;;;;;;;;4977254;28;20077;-73
2022/07/24 02:46:31;;;;;;;2.72;1.60;;;;;;;;;;4977458;28;20046;-73
2022/07/24 02:48:57;;;;;;;2.55;1.58;;;;;;;;;;4976864;28;20044;-72
2022/07/24 02:51:23;;;;;;;1.67;1.45;;;;;;;;;;4976846;28;20113;-72
2022/07/24 02:53:49;;;;;;;2.00;1.70;;;;;;;;;;4977359;28;20013;-72
2022/07/24 02:56:15;;;;;;;2.10;1.80;;;;;;;;;;4976690;28;20039;-72
2022/07/24 02:58:41;;;;;;;5.13;2.00;;;;;;;;;;4976731;28;20544;-72
2022/07/24 03:01:07;;;;;;;4.45;1.77;;;;;;;;;;4976639;28;20496;-72
2022/07/24 03:03:33;;;;;;;2.10;1.75;;;;;;;;;;4976491;28;20051;-72
2022/07/24 03:05:59;;;;;;;3.53;1.88;;;;;;;;;;4976858;28;20119;-71
2022/07/24 03:08:25;;;;;;;2.10;1.88;;;;;;;;;;4976806;28;20101;-74
2022/07/24 03:10:51;;;;;;;1.95;1.50;;;;;;;;;;4959057;28;20085;-72
2022/07/24 03:13:17;;;;;;;2.10;1.80;;;;;;;;;;4976466;28;20026;-71
2022/07/24 03:15:43;;;;;;;2.03;1.63;;;;;;;;;;4976611;28;20033;-73
2022/07/24 03:18:09;;;;;;;1.88;1.70;;;;;;;;;;4959041;28;20523;-74
2022/07/24 03:20:35;;;;;;;2.38;1.80;;;;;;;;;;4976378;28;20019;-72
2022/07/24 03:23:01;;;;;;;2.75;2.10;;;;;;;;;;4976315;28;20027;-73
2022/07/24 03:25:27;;;;;;;3.25;1.73;;;;;;;;;;4976251;28;20025;-72
2022/07/24 03:27:53;;;;;;;2.38;2.10;;;;;;;;;;4976762;28;20037;-71
2022/07/24 03:30:19;;;;;;;2.20;1.90;;;;;;;;;;4976176;28;20027;-72
2022/07/24 03:32:46;;;;;;;2.83;1.90;;;;;;;;;;4958805;28;20031;-73
2022/07/24 03:35:12;;;;;;;1.95;1.75;;;;;;;;;;4976097;28;20107;-72
2022/07/24 03:37:38;;;;;;;3.72;1.90;;;;;;;;;;4975967;28;20031;-72
2022/07/24 03:40:04;;;;;;;1.67;1.58;;;;;;;;;;4975976;28;20115;-72
2022/07/24 03:42:30;;;;;;;2.47;1.75;;;;;;;;;;4975883;28;20073;-74
2022/07/24 03:44:56;;;;;;;1.90;1.60;;;;;;;;;;4975903;28;20106;-72
2022/07/24 03:47:22;;;;;;;2.15;1.95;;;;;;;;;;4976076;28;20038;-74
2022/07/24 03:49:48;;;;;;;2.30;1.73;;;;;;;;;;4975814;28;20034;-73
2022/07/24 03:52:14;;;;;;;2.40;1.80;;;;;;;;;;4975205;28;20106;-71
2022/07/24 03:54:40;;;;;;;2.92;1.90;;;;;;;;;;4958883;28;20031;-73
2022/07/24 03:57:06;;;;;;;1.73;1.63;;;;;;;;;;4975600;28;20030;-71
2022/07/24 03:59:32;;;;;;;2.10;1.90;;;;;;;;;;4975527;28;20034;-72
2022/07/24 04:01:59;;;;;;;2.15;1.95;;;;;;;;;;4976141;28;20030;-74
2022/07/24 04:04:25;;;;;;;2.60;1.67;;;;;;;;;;4975300;28;20046;-71
2022/07/24 04:06:51;;;;;;;2.50;1.70;;;;;;;;;;4975747;28;20042;-72
2022/07/24 04:09:17;;;;;;;3.58;2.03;;;;;;;;;;4975466;28;20026;-74
2022/07/24 04:11:44;;;;;;;2.28;1.90;;;;;;;;;;4975431;28;20114;-73
2022/07/24 04:14:10;;;;;;;2.38;1.83;;;;;;;;;;4975622;28;20098;-74
2022/07/24 04:16:36;;;;;;;2.85;1.92;;;;;;;;;;4975755;28;20437;-73
2022/07/24 04:19:03;;;;;;;2.00;1.80;;;;;;;;;;4975225;28;20486;-73
2022/07/24 04:21:29;;;;;;;2.40;1.92;;;;;;;;;;4975187;28;20073;-72
2022/07/24 04:23:55;;;;;;;3.92;2.20;;;;;;;;;;4975176;28;20102;-70
2022/07/24 04:26:21;;;;;;;3.08;2.17;;;;;;;;;;4975110;28;20535;-72
2022/07/24 04:28:47;;;;;;;4.47;2.10;;;;;;;;;;4975075;28;20019;-72
2022/07/24 04:31:13;;;;;;;3.20;2.00;;;;;;;;;;4975285;28;20109;-72
2022/07/24 04:33:39;;;;;;;3.47;2.10;;;;;;;;;;4975020;28;20053;-74
2022/07/24 04:36:05;;;;;;;2.55;1.70;;;;;;;;;;4974886;28;20030;-72
2022/07/24 04:38:35;;;;;;;1.70;1.60;;;;;;;;;;4975150;28;20045;-72
2022/07/24 04:41:01;;;;;;;2.15;1.90;;;;;;;;;;4974910;28;20022;-71
2022/07/24 04:43:27;;;;;;;2.42;1.90;;;;;;;;;;4974885;28;20106;-73
2022/07/24 04:45:53;;;;;;;2.40;1.90;;;;;;;;;;4975094;28;20030;-73
2022/07/24 04:48:19;;;;;;;3.90;2.30;;;;;;;;;;4974760;28;20022;-73
2022/07/24 04:50:45;;;;;;;2.25;1.90;;;;;;;;;;4974716;28;20023;-73
2022/07/24 04:53:11;;;;;;;2.70;1.80;;;;;;;;;;4974721;28;20489;-72
2022/07/24 04:55:38;;;;;;;2.60;2.10;;;;;;;;;;4975150;28;20031;-72
2022/07/24 04:58:04;;;;;;;2.33;1.88;;;;;;;;;;4975115;28;20598;-72
2022/07/24 05:00:30;;;;;;;2.55;2.08;;;;;;;;;;4974545;28;20055;-72
2022/07/24 05:02:56;;;;;;;3.45;2.15;;;;;;;;;;4953001;28;20035;-70
2022/07/24 05:05:22;;;;;;;5.15;2.22;;;;;;;;;;4955598;28;20101;-73
2022/07/24 05:07:48;;;;;;;2.22;1.95;;;;;;;;;;4955273;28;20530;-72
2022/07/24 05:10:14;;;;;;;2.50;1.90;;;;;;;;;;4955206;28;20117;-71
2022/07/24 05:12:40;;;;;;;2.78;2.00;;;;;;;;;;4955519;28;20057;-75
2022/07/24 05:15:07;;;;;;;6.03;2.25;;;;;;;;;;4955479;28;20482;-74
2022/07/24 05:17:34;;;;;;;3.05;2.10;;;;;;;;;;4955068;28;20117;-72
2022/07/24 05:20:00;;;;;;;3.35;2.10;;;;;;;;;;4953867;29;20027;-74
2022/07/24 05:22:26;;;;;;;2.75;2.00;;;;;;;;;;4955352;28;20030;-72
2022/07/24 05:24:52;;;;;;;2.90;1.73;;;;;;;;;;4953800;29;20031;-72
2022/07/24 05:27:18;;;;;;;3.75;2.20;;;;;;;;;;4955030;28;20023;-74
2022/07/24 05:29:46;;;;;;;3.70;2.40;;;;;;;;;;4955273;28;20086;-73
2022/07/24 05:32:12;;;;;;;2.55;2.20;;;;;;;;;;4955022;28;20031;-72
2022/07/24 05:34:38;;;;;;;5.70;2.53;;;;;;;;;;4955027;28;20031;-71
2022/07/24 05:37:04;;;;;;;3.45;2.33;;;;;;;;;;4955235;28;20063;-74
2022/07/24 05:39:30;;;;;;;2.55;2.30;;;;;;;;;;4955007;28;20027;-72
2022/07/24 05:41:56;;;;;;;2.65;2.08;;;;;;;;;;4955551;28;20020;-72
2022/07/24 05:44:22;;;;;;;3.88;2.20;;;;;;;;;;4955477;28;20054;-73
2022/07/24 05:46:48;;;;;;;3.47;2.10;;;;;;;;;;4955183;28;20109;-73
2022/07/24 05:49:14;;;;;;;3.88;2.20;;;;;;;;;;4955148;28;20039;-72
2022/07/24 05:51:40;;;;;;;1.80;1.70;;;;;;;;;;4954858;28;20043;-72
2022/07/24 05:54:06;;;;;;;2.30;1.77;;;;;;;;;;4955567;28;20039;-71
2022/07/24 05:56:32;;;;;;;4.80;1.98;;;;;;;;;;4953436;29;20399;-73
2022/07/24 05:58:58;;;;;;;2.55;1.95;;;;;;;;;;4954767;28;20444;-73
2022/07/24 06:01:24;;;;;;;4.03;2.17;;;;;;;;;;4954628;28;20034;-72
2022/07/24 06:03:50;;;;;;;1.70;1.60;;;;;;;;;;4965956;28;20055;-71
2022/07/24 06:06:16;;;;;;;2.28;2.05;;;;;;;;;;4973959;28;20463;-72
2022/07/24 06:08:42;;;;;;;3.08;1.75;;;;;;;;;;4974222;28;20027;-72
2022/07/24 06:11:09;;;;;;;1.90;1.70;;;;;;;;;;4973930;28;20038;-71
2022/07/24 06:13:35;;;;;;;3.00;1.90;;;;;;;;;;4974162;28;20063;-72
2022/07/24 06:16:01;;;;;;;3.25;1.63;;;;;;;;;;4976945;28;20077;-73
2022/07/24 06:18:27;;;;;;;1.55;1.45;;;;;;;;;;4977483;28;20066;-73
2022/07/24 06:20:52;;;;;;;2.05;1.52;;;;;;;;;;4960082;28;20054;-74
2022/07/24 06:23:18;;;;;;;1.10;1.10;;;;;;;;;;4977368;28;20105;-73
2022/07/24 06:25:44;;;;;;;1.42;1.15;;;;;;;;;;4959942;28;20408;-74
2022/07/24 06:28:10;;;;;;;2.13;1.13;;;;;;;;;;4977308;28;20114;-73
2022/07/24 06:30:37;;;;;;;1.33;1.20;;;;;;;;;;4977807;28;20157;-74
2022/07/24 06:33:03;;;;;;;1.65;1.10;;;;;;;;;;4977184;28;20169;-72
2022/07/24 06:35:32;;;;;;;2.40;1.20;;;;;;;;;;4977199;28;20572;-72
2022/07/24 06:37:59;;;;;;;3.65;1.15;;;;;;;;;;4977085;28;20035;-72
2022/07/24 06:40:25;;;;;;;1.75;1.00;;;;;;;;;;4977386;28;20019;-74
2022/07/24 06:42:51;;;;;;;3.90;1.02;;;;;;;;;;4977100;28;20183;-73
2022/07/24 06:45:17;;;;;;;1.27;0.98;;;;;;;;;;4977010;28;20107;-72
2022/07/24 06:47:43;;;;;;;4.00;1.25;;;;;;;;;;4976955;28;20485;-73
2022/07/24 06:50:10;;;;;;;2.33;0.98;;;;;;;;;;4959572;28;20398;-72
2022/07/24 06:52:36;;;;;;;2.72;0.93;;;;;;;;;;4977456;28;20098;-75
2022/07/24 06:55:04;;;;;;;2.17;0.90;;;;;;;;;;4977375;28;20062;-72
2022/07/24 06:57:30;;;;;;;1.50;0.80;;;;;;;;;;4977352;28;20030;-73
2022/07/24 06:59:56;;;;;;;2.28;0.90;;;;;;;;;;4976627;28;20023;-72
2022/07/24 07:02:22;;;;;;;0.73;0.73;;;;;;;;;;4976699;28;20086;-72
2022/07/24 07:04:49;;;;;;;1.65;0.85;;;;;;;;;;4976529;28;20046;-72
2022/07/24 07:07:15;;;;;;;1.52;0.80;;;;;;;;;;4976633;28;20448;-72
2022/07/24 07:09:41;;;;;;;1.85;0.80;;;;;;;;;;4959238;28;20038;-72
2022/07/24 07:12:08;;;;;;;2.72;1.13;;;;;;;;;;4976514;28;20030;-72
2022/07/24 07:14:34;;;;;;;2.63;1.00;;;;;;;;;;4976719;28;20166;-72
2022/07/24 07:17:00;;;;;;;1.48;0.63;;;;;;;;;;4976350;28;20031;-71
2022/07/24 07:19:26;;;;;;;1.30;0.75;;;;;;;;;;4976386;28;20150;-73
2022/07/24 07:21:52;;;;;;;0.60;0.60;;;;;;;;;;4976604;28;20058;-72
2022/07/24 07:24:18;;;;;;;0.70;0.70;;;;;;;;;;4976333;28;20461;-73
2022/07/24 07:26:44;;;;;;;0.32;0.32;;;;;;;;;;4975353;28;20030;-74
2022/07/24 07:29:10;;;;;;;0.55;0.55;;;;;;;;;;4976230;28;20448;-73
2022/07/24 07:31:37;;;;;;;0.90;0.50;;;;;;;;;;4976196;28;20038;-74
2022/07/24 07:34:03;;;;;;;0.32;0.32;;;;;;;;;;4976423;28;20507;-72
2022/07/24 07:36:29;;;;;;;1.35;0.40;;;;;;;;;;4976285;28;20041;-75
2022/07/24 07:38:57;;;;;;;0.65;0.40;;;;;;;;;;4976310;28;20026;-76
2022/07/24 07:41:23;;;;;;;0.82;0.40;;;;;;;;;;4975974;28;20030;-74
2022/07/24 07:43:49;;;;;;;1.42;0.50;;;;;;;;;;4975927;28;20069;-73
2022/07/24 07:46:15;;;;;;;0.60;0.60;;;;;;;;;;4976140;28;20031;-73
2022/07/24 07:48:42;;;;;;;0.73;0.70;;;;;;;;;;4976126;28;20038;-72
2022/07/24 07:51:08;;;;;;;0.50;0.50;;;;;;;;;;4975813;28;20038;-72
2022/07/24 07:53:34;;;;;;;0.55;0.43;;;;;;;;;;4975769;28;20089;-73
2022/07/24 07:56:01;;;;;;;0.50;0.50;;;;;;;;;;4976695;28;20031;-74
2022/07/24 07:58:27;;;;;;;0.52;0.52;;;;;;;;;;4975683;28;20033;-71
2022/07/24 08:00:53;;;;;;;1.20;0.55;;;;;;;;;;4975522;28;20481;-73
2022/07/24 08:03:19;;;;;;;0.40;0.40;;;;;;;;;;4958045;28;20062;-73
2022/07/24 08:05:46;;;;;;;0.70;0.70;;;;;;;;;;4975802;28;20019;-76
2022/07/24 08:08:12;;;;;;;1.60;0.52;;;;;;;;;;4976000;28;20117;-73
2022/07/24 08:10:38;;;;;;;0.63;0.63;;;;;;;;;;4975588;28;20031;-75
2022/07/24 08:13:04;;;;;;;0.63;0.60;;;;;;;;;;4975897;28;20073;-72
2022/07/24 08:15:30;;;;;;;0.77;0.75;;;;;;;;;;4975217;28;20030;-73
2022/07/24 08:17:57;;;;;;;0.77;0.70;;;;;;;;;;4975572;28;20041;-72
2022/07/24 08:20:23;;;;;;;2.28;1.20;;;;;;;;;;4975268;28;20077;-74
2022/07/24 08:22:50;;;;;;;1.08;0.70;;;;;;;;;;4975499;28;20030;-72
2022/07/24 08:25:16;;;;;;;0.75;0.70;;;;;;;;;;4975480;28;20058;-73
2022/07/24 08:27:42;;;;;;;3.92;0.98;;;;;;;;;;4975404;28;20393;-72
2022/07/24 08:30:08;;;;;;;0.52;0.52;;;;;;;;;;4975092;28;20027;-73
2022/07/24 08:32:35;;;;;;;0.93;0.82;;;;;;;;;;4975304;28;20110;-73
2022/07/24 08:35:01;;;;;;;0.43;0.43;;;;;;;;;;4975016;28;20041;-74
2022/07/24 08:37:27;;;;;;;0.60;0.60;;;;;;;;;;4974744;28;20053;-72
2022/07/24 08:39:54;;;;;;;0.93;0.70;;;;;;;;;;4975152;28;20109;-74
2022/07/24 08:42:20;;;;;;;0.65;0.63;;;;;;;;;;4974850;28;20117;-72
2022/07/24 08:44:47;;;;;;;0.80;0.75;;;;;;;;;;4974834;28;20029;-76
2022/07/24 08:47:15;;;;;;;1.25;0.70;;;;;;;;;;4974813;28;20038;-74
2022/07/24 08:49:41;;;;;;;0.98;0.60;;;;;;;;;;4975347;28;20030;-75
2022/07/24 08:52:08;;;;;;;0.63;0.63;;;;;;;;;;4974772;28;20034;-76
2022/07/24 08:54:35;;;;;;;0.52;0.52;;;;;;;;;;4975169;28;20035;-73
2022/07/24 08:57:01;;;;;;;0.70;0.50;;;;;;;;;;4974551;28;20027;-73
2022/07/24 08:59:27;;;;;;;2.25;0.80;;;;;;;;;;4974844;28;20035;-72
2022/07/24 09:01:54;;;;;;;2.03;0.75;;;;;;;;;;4974556;28;20018;-72
2022/07/24 09:04:38;;;;;;;0.50;0.50;;;;;;;;;;4974417;28;20047;-73
2022/07/24 09:07:25;;;;;;;0.68;0.65;;;;;;;;;;4974565;28;20023;-73
2022/07/24 09:10:03;;;;;;;0.95;0.68;;;;;;;;;;4957088;28;20461;-72
2022/07/24 09:12:33;;;;;;;0.68;0.68;;;;;;;;;;4974449;28;20516;-75
2022/07/24 09:15:00;;;;;;;0.70;0.70;;;;;;;;;;4974448;28;20041;-74
2022/07/24 09:17:26;;;;;;;0.50;0.50;;;;;;;;;;4974291;28;20118;-74
2022/07/24 09:19:52;;;;;;;0.95;0.90;;;;;;;;;;4974406;28;20066;-73
2022/07/24 09:22:27;;;;;;;1.65;0.88;;;;;;;;;;4974362;28;20027;-72
2022/07/24 09:25:09;;;;;;;1.50;0.88;;;;;;;;;;4974326;28;20493;-72
2022/07/24 09:27:35;;;;;;;1.40;0.90;;;;;;;;;;4974576;28;20035;-73
2022/07/24 09:30:01;;;;;;;0.80;0.80;;;;;;;;;;4974590;28;20030;-72
2022/07/24 09:32:28;;;;;;;1.27;1.00;;;;;;;;;;4974543;28;20027;-75
2022/07/24 09:34:55;;;;;;;1.08;0.90;;;;;;;;;;4974276;28;20149;-73
2022/07/24 09:37:21;;;;;;;1.48;1.00;;;;;;;;;;4974496;28;20057;-73
2022/07/24 09:39:48;;;;;;;1.15;0.77;;;;;;;;;;4956876;28;20445;-73
2022/07/24 09:42:14;;;;;;;0.73;0.70;;;;;;;;;;4974739;28;20049;-72
2022/07/24 09:44:40;;;;;;;1.17;1.08;;;;;;;;;;4974072;28;20101;-73
2022/07/24 09:47:07;;;;;;;2.05;0.80;;;;;;;;;;4974178;28;20027;-71
2022/07/24 09:49:34;;;;;;;1.85;0.80;;;;;;;;;;4974930;28;20031;-72
2022/07/24 09:52:06;;;;;;;1.08;0.85;;;;;;;;;;4960599;28;20027;-73
2022/07/24 09:54:34;;;;;;;0.80;0.80;;;;;;;;;;4977940;28;20093;-74
2022/07/24 09:57:15;;;;;;;0.85;0.80;;;;;;;;;;4978620;28;20504;-73
2022/07/24 09:59:43;;;;;;;1.10;1.00;;;;;;;;;;4978302;28;20018;-74
2022/07/24 10:02:13;;;;;;;0.80;0.80;;;;;;;;;;4977532;28;20515;-72
2022/07/24 10:04:41;;;;;;;2.22;0.90;;;;;;;;;;4977401;28;20051;-75
2022/07/24 10:07:09;;;;;;;2.78;0.80;;;;;;;;;;4977666;28;20031;-73
2022/07/24 10:09:36;;;;;;;1.10;1.00;;;;;;;;;;4977814;28;20031;-73
2022/07/24 10:12:04;;;;;;;3.33;0.93;;;;;;;;;;4960115;28;20592;-75
2022/07/24 10:14:30;;;;;;;0.88;0.88;;;;;;;;;;4977887;28;20035;-75
2022/07/24 10:17:15;;;;;;;2.00;0.95;;;;;;;;;;4977466;28;20037;-72
2022/07/24 10:19:41;;;;;;;1.02;0.93;;;;;;;;;;4978045;28;20034;-73
2022/07/24 10:22:11;;;;;;;1.15;1.05;;;;;;;;;;4960013;28;20454;-73
2022/07/24 10:24:40;;;;;;;0.80;0.70;;;;;;;;;;4977943;28;20027;-73
2022/07/24 10:27:14;;;;;;;1.00;0.90;;;;;;;;;;4977365;28;20038;-72
2022/07/24 10:29:41;;;;;;;0.80;0.80;;;;;;;;;;4977580;28;20411;-72
2022/07/24 10:32:07;;;;;;;0.93;0.80;;;;;;;;;;4977285;28;20106;-73
2022/07/24 10:34:42;;;;;;;0.80;0.80;;;;;;;;;;4977195;28;20030;-73
2022/07/24 10:37:29;;;;;;;0.95;0.88;;;;;;;;;;4977402;28;20113;-72
2022/07/24 10:39:55;;;;;;;1.80;0.65;;;;;;;;;;4977662;28;20066;-72
2022/07/24 10:42:21;;;;;;;1.02;0.93;;;;;;;;;;4977353;28;20050;-73
2022/07/24 10:45:05;;;;;;;1.13;1.05;;;;;;;;;;4977344;28;20082;-72
2022/07/24 10:47:32;;;;;;;1.08;0.98;;;;;;;;;;4976986;28;20050;-73
2022/07/24 10:50:00;;;;;;;1.00;0.90;;;;;;;;;;4976980;28;20090;-74
2022/07/24 10:52:31;;;;;;;1.52;1.02;;;;;;;;;;4976910;28;20417;-73
2022/07/24 10:55:15;;;;;;;1.27;0.82;;;;;;;;;;4977971;28;20038;-73
2022/07/24 10:58:01;;;;;;;1.02;0.93;;;;;;;;;;4977003;28;20057;-74
2022/07/24 11:00:32;;;;;;;1.10;1.00;;;;;;;;;;4975890;28;20397;-76
2022/07/24 11:03:02;;;;;;;1.85;1.10;;;;;;;;;;4976213;28;20501;-73
2022/07/24 11:05:31;;;;;;;0.98;0.93;;;;;;;;;;4977283;28;20034;-71
2022/07/24 11:08:12;;;;;;;0.90;0.85;;;;;;;;;;4959253;28;20397;-73
2022/07/24 11:11:07;;;;;;;1.98;1.10;;;;;;;;;;4959259;28;20041;-72
2022/07/24 11:13:33;;;;;;;1.15;1.00;;;;;;;;;;4960383;28;20378;-74
2022/07/24 11:16:12;;;;;;;1.40;1.10;;;;;;;;;;4976727;28;20038;-74
2022/07/24 11:18:39;;;;;;;1.35;1.05;;;;;;;;;;4976517;28;20019;-73
2022/07/24 11:21:05;;;;;;;1.20;0.95;;;;;;;;;;4976656;28;20034;-72
2022/07/24 11:23:31;;;;;;;1.00;0.95;;;;;;;;;;4976874;28;20034;-72
2022/07/24 11:26:22;;;;;;;2.90;1.20;;;;;;;;;;4976849;28;20030;-72
2022/07/24 11:29:06;;;;;;;1.90;1.05;;;;;;;;;;4951894;28;20045;-74
2022/07/24 11:31:32;;;;;;;1.73;1.35;;;;;;;;;;4976443;28;20027;-72
2022/07/24 11:34:00;;;;;;;1.30;1.20;;;;;;;;;;4976211;28;20027;-74
2022/07/24 11:36:26;;;;;;;2.30;1.23;;;;;;;;;;4975978;28;20389;-73
2022/07/24 11:38:52;;;;;;;1.10;1.00;;;;;;;;;;4958760;28;20027;-73
2022/07/24 11:41:18;;;;;;;1.13;0.82;;;;;;;;;;4976016;28;20073;-71
2022/07/24 11:43:54;;;;;;;3.55;1.17;;;;;;;;;;4975980;28;20552;-72
2022/07/24 11:46:33;;;;;;;1.20;1.10;;;;;;;;;;4976451;28;20034;-72
2022/07/24 11:49:06;;;;;;;1.67;1.17;;;;;;;;;;4958530;28;20018;-73
2022/07/24 11:51:33;;;;;;;1.30;1.20;;;;;;;;;;4976099;28;20058;-73
2022/07/24 11:54:01;;;;;;;1.73;1.25;;;;;;;;;;4976309;28;20019;-73
2022/07/24 11:56:30;;;;;;;1.17;1.08;;;;;;;;;;4976186;28;20026;-73
2022/07/24 11:58:56;;;;;;;3.33;1.50;;;;;;;;;;4958376;28;20053;-75
2022/07/24 12:01:22;;;;;;;1.35;1.17;;;;;;;;;;4975599;28;20027;-73
2022/07/24 12:03:57;;;;;;;2.55;1.10;;;;;;;;;;4975659;28;20043;-74
2022/07/24 12:06:23;;;;;;;1.17;1.00;;;;;;;;;;4975787;28;20091;-72
2022/07/24 12:08:49;;;;;;;1.50;1.20;;;;;;;;;;4975814;28;20520;-72
2022/07/24 12:11:21;;;;;;;1.45;1.20;;;;;;;;;;4975516;28;20035;-72
2022/07/24 12:13:48;;;;;;;2.30;1.20;;;;;;;;;;4975022;28;20035;-72
2022/07/24 12:16:31;;;;;;;2.33;1.00;;;;;;;;;;4975287;28;20069;-73
2022/07/24 12:19:16;;;;;;;2.03;1.10;;;;;;;;;;4975905;28;20102;-72
2022/07/24 12:21:43;;;;;;;2.53;1.10;;;;;;;;;;4976125;28;20452;-73
2022/07/24 12:24:10;;;;;;;1.60;1.30;;;;;;;;;;4975196;28;20026;-74
2022/07/24 12:26:54;;;;;;;2.70;1.08;;;;;;;;;;4975220;28;20034;-73
2022/07/24 12:29:21;;;;;;;1.35;1.10;;;;;;;;;;4975379;28;20023;-72
2022/07/24 12:31:47;;;;;;;1.40;1.30;;;;;;;;;;4975083;28;20058;-73
2022/07/24 12:34:13;;;;;;;1.30;1.20;;;;;;;;;;4975309;28;20027;-73
2022/07/24 12:36:40;;;;;;;1.25;0.82;;;;;;;;;;4975200;28;20035;-72
2022/07/24 12:39:06;;;;;;;1.88;1.30;;;;;;;;;;4975483;28;20034;-75
2022/07/24 12:41:41;;;;;;;1.58;1.10;;;;;;;;;;4974911;28;20102;-72
2022/07/24 12:44:07;;;;;;;1.30;1.00;;;;;;;;;;4975162;28;20025;-73
2022/07/24 12:46:33;;;;;;;1.88;1.15;;;;;;;;;;4975146;28;20031;-73
2022/07/24 12:48:59;;;;;;;2.30;1.27;;;;;;;;;;4975321;28;20023;-74
2022/07/24 12:51:25;;;;;;;2.50;1.13;;;;;;;;;;4975028;28;20109;-74
2022/07/24 12:53:55;;;;;;;1.52;1.13;;;;;;;;;;4974741;28;20031;-71
2022/07/24 12:56:21;;;;;;;1.45;0.90;;;;;;;;;;4975400;28;20034;-75
2022/07/24 12:58:50;;;;;;;1.13;1.05;;;;;;;;;;4974950;28;20027;-72
2022/07/24 13:01:16;;;;;;;1.67;1.13;;;;;;;;;;4974636;28;20031;-71
2022/07/24 13:03:43;;;;;;;1.25;1.15;;;;;;;;;;4974590;28;20046;-73
2022/07/24 13:06:09;;;;;;;1.08;1.00;;;;;;;;;;4974573;28;20425;-73
2022/07/24 13:08:35;;;;;;;1.25;1.10;;;;;;;;;;4974565;28;20137;-74
2022/07/24 13:11:01;;;;;;;0.93;0.93;;;;;;;;;;4974788;28;20397;-73
2022/07/24 13:13:27;;;;;;;1.30;1.20;;;;;;;;;;4974505;28;20026;-73
2022/07/24 13:15:53;;;;;;;1.90;1.20;;;;;;;;;;4974759;28;20022;-73
2022/07/24 13:18:19;;;;;;;1.02;0.93;;;;;;;;;;4974369;28;20035;-73
2022/07/24 13:20:45;;;;;;;1.50;1.20;;;;;;;;;;4974413;28;20023;-73
2022/07/24 13:23:11;;;;;;;1.20;1.10;;;;;;;;;;4974554;28;20082;-73
2022/07/24 13:25:37;;;;;;;1.33;0.98;;;;;;;;;;4973657;28;20370;-75
2022/07/24 13:28:03;;;;;;;1.40;1.17;;;;;;;;;;4974360;28;20060;-73
2022/07/24 13:30:29;;;;;;;2.85;1.20;;;;;;;;;;4974348;28;20050;-73
2022/07/24 13:32:55;;;;;;;2.35;1.10;;;;;;;;;;4974310;28;20038;-75
2022/07/24 13:35:21;;;;;;;1.02;0.95;;;;;;;;;;4974269;28;20113;-74
2022/07/24 13:37:47;;;;;;;1.35;0.85;;;;;;;;;;4974442;28;20035;-72
2022/07/24 13:40:13;;;;;;;2.00;1.00;;;;;;;;;;4974209;28;20023;-74
2022/07/24 13:42:40;;;;;;;1.45;1.35;;;;;;;;;;4974234;28;20111;-72
2022/07/24 13:45:06;;;;;;;2.00;1.13;;;;;;;;;;4974725;28;20027;-72
2022/07/24 13:47:32;;;;;;;1.50;1.00;;;;;;;;;;4974232;28;20611;-74
2022/07/24 13:49:58;;;;;;;1.25;1.10;;;;;;;;;;4974150;28;20058;-73
2022/07/24 13:52:24;;;;;;;1.02;0.88;;;;;;;;;;4974399;28;20106;-73
2022/07/24 13:54:50;;;;;;;1.20;1.10;;;;;;;;;;4974097;28;20030;-73
2022/07/24 13:57:16;;;;;;;1.15;0.90;;;;;;;;;;4974787;28;20031;-73
2022/07/24 13:59:42;;;;;;;1.30;1.20;;;;;;;;;;4973986;28;20027;-72
2022/07/24 14:02:08;;;;;;;4.03;1.40;;;;;;;;;;4974062;28;20031;-72
2022/07/24 14:04:34;;;;;;;1.23;1.00;;;;;;;;;;4973632;28;20580;-74
2022/07/24 14:07:01;;;;;;;0.98;0.98;;;;;;;;;;4956667;28;20151;-74
2022/07/24 14:09:28;;;;;;;0.88;0.88;;;;;;;;;;4974219;28;20366;-73
2022/07/24 14:11:54;;;;;;;1.17;1.05;;;;;;;;;;4973919;28;20485;-72
2022/07/24 14:14:20;;;;;;;3.03;1.30;;;;;;;;;;4973807;28;20486;-74
2022/07/24 14:16:46;;;;;;;0.93;0.90;;;;;;;;;;4973971;28;20065;-74
2022/07/24 14:19:12;;;;;;;2.05;1.27;;;;;;;;;;4973749;28;20050;-74
2022/07/24 14:21:39;;;;;;;1.95;1.13;;;;;;;;;;4974014;28;20107;-72
2022/07/24 14:24:05;;;;;;;2.00;1.30;;;;;;;;;;4974043;28;20023;-73
2022/07/24 14:26:31;;;;;;;1.42;1.20;;;;;;;;;;4973786;28;20464;-73
2022/07/24 14:28:57;;;;;;;1.17;1.08;;;;;;;;;;4973674;28;20027;-74
2022/07/24 14:31:23;;;;;;;1.92;1.60;;;;;;;;;;4973763;28;20035;-73
2022/07/24 14:33:49;;;;;;;1.20;1.10;;;;;;;;;;4974048;28;20170;-73
2022/07/24 14:36:16;;;;;;;1.10;0.98;;;;;;;;;;4958246;28;20177;-73
2022/07/24 14:38:42;;;;;;;1.15;1.05;;;;;;;;;;4977510;28;20019;-74
2022/07/24 14:41:08;;;;;;;2.42;1.20;;;;;;;;;;4977384;28;20033;-73
2022/07/24 14:43:34;;;;;;;1.13;1.13;;;;;;;;;;4959676;28;20479;-75